sensor_id;sensor_type;location;lat;lon;timestamp;temperature;humidity
4548;DHT22;2286;51.570;7.090;2023-06-22T00:01:45;21.60;99.90
4548;DHT22;2286;51.570;7.090;2023-06-22T00:04:12;21.60;99.90
4548;DHT22;2286;51.570;7.090;2023-06-22T00:06:39;21.60;99.90
4548;DHT22;2286;51.570;7.090;2023-06-22T00:09:06;21.60;99.90
4548;DHT22;2286;51.570;7.090;2023-06-22T00:11:35;21.60;99.90
4548;DHT22;2286;51.570;7.090;2023-06-22T00:14:02;21.50;99.90
4548;DHT22;2286;51.570;7.090;2023-06-22T00:16:29;21.40;99.90
4548;DHT22;2286;51.570;7.090;2023-06-22T00:18:56;21.50;99.90
4548;DHT22;2286;51.570;7.090;2023-06-22T00:21:26;21.40;99.90
4548;DHT22;2286;51.570;7.090;2023-06-22T00:23:53;21.40;1.00
4548;DHT22;2286;51.570;7.090;2023-06-22T00:26:20;21.30;1.00
4548;DHT22;2286;51.570;7.090;2023-06-22T00:28:48;21.20;1.00
4548;DHT22;2286;51.570;7.090;2023-06-22T00:31:15;21.20;1.00
4548;DHT22;2286;51.570;7.090;2023-06-22T00:33:43;21.10;1.00
4548;DHT22;2286;51.570;7.090;2023-06-22T00:36:10;21.20;1.00
4548;DHT22;2286;51.570;7.090;2023-06-22T00:38:38;21.20;1.00
4548;DHT22;2286;51.570;7.090;2023-06-22T00:41:06;21.20;1.00
4548;DHT22;2286;51.570;7.090;2023-06-22T00:43:33;21.20;1.00
4548;DHT22;2286;51.570;7.090;2023-06-22T00:46:02;21.20;1.00
4548;DHT22;2286;51.570;7.090;2023-06-22T00:48:29;21.20;1.00
4548;DHT22;2286;51.570;7.090;2023-06-22T00:50:56;21.20;1.00
4548;DHT22;2286;51.570;7.090;2023-06-22T00:53:23;21.20;1.00
4548;DHT22;2286;51.570;7.090;2023-06-22T00:55:50;21.20;1.00
4548;DHT22;2286;51.570;7.090;2023-06-22T00:58:18;21.20;1.00
4548;DHT22;2286;51.570;7.090;2023-06-22T01:00:47;21.20;1.00
4548;DHT22;2286;51.570;7.090;2023-06-22T01:03:16;21.10;1.00
4548;DHT22;2286;51.570;7.090;2023-06-22T01:05:44;21.10;1.00
4548;DHT22;2286;51.570;7.090;2023-06-22T01:08:23;21.00;1.00
4548;DHT22;2286;51.570;7.090;2023-06-22T01:10:57;20.90;1.00
4548;DHT22;2286;51.570;7.090;2023-06-22T01:13:31;20.90;1.00
4548;DHT22;2286;51.570;7.090;2023-06-22T01:16:03;21.00;1.00
4548;DHT22;2286;51.570;7.090;2023-06-22T01:18:34;20.90;1.00
4548;DHT22;2286;51.570;7.090;2023-06-22T01:21:02;20.80;1.00
4548;DHT22;2286;51.570;7.090;2023-06-22T01:23:47;20.70;1.00
4548;DHT22;2286;51.570;7.090;2023-06-22T01:26:20;20.70;1.00
4548;DHT22;2286;51.570;7.090;2023-06-22T01:28:51;20.60;1.00
4548;DHT22;2286;51.570;7.090;2023-06-22T01:31:22;20.60;1.00
4548;DHT22;2286;51.570;7.090;2023-06-22T01:33:53;20.50;1.00
4548;DHT22;2286;51.570;7.090;2023-06-22T01:36:21;20.50;1.00
4548;DHT22;2286;51.570;7.090;2023-06-22T01:38:49;20.40;1.00
4548;DHT22;2286;51.570;7.090;2023-06-22T01:41:17;20.40;1.00
4548;DHT22;2286;51.570;7.090;2023-06-22T01:43:45;20.40;1.00
4548;DHT22;2286;51.570;7.090;2023-06-22T01:46:14;20.30;1.00
4548;DHT22;2286;51.570;7.090;2023-06-22T01:48:41;20.30;1.00
4548;DHT22;2286;51.570;7.090;2023-06-22T01:51:08;20.30;1.00
4548;DHT22;2286;51.570;7.090;2023-06-22T01:53:36;20.30;1.00
4548;DHT22;2286;51.570;7.090;2023-06-22T01:56:03;20.30;1.00
4548;DHT22;2286;51.570;7.090;2023-06-22T01:58:31;20.30;1.00
4548;DHT22;2286;51.570;7.090;2023-06-22T02:01:03;20.30;9.90
4548;DHT22;2286;51.570;7.090;2023-06-22T02:03:37;20.20;22.90
4548;DHT22;2286;51.570;7.090;2023-06-22T02:06:06;20.20;34.40
4548;DHT22;2286;51.570;7.090;2023-06-22T02:08:41;20.20;38.70
4548;DHT22;2286;51.570;7.090;2023-06-22T02:11:10;20.30;36.90
4548;DHT22;2286;51.570;7.090;2023-06-22T02:13:38;20.30;33.80
4548;DHT22;2286;51.570;7.090;2023-06-22T02:16:09;20.20;31.60
4548;DHT22;2286;51.570;7.090;2023-06-22T02:18:38;20.20;34.10
4548;DHT22;2286;51.570;7.090;2023-06-22T02:21:06;20.20;36.50
4548;DHT22;2286;51.570;7.090;2023-06-22T02:23:33;20.10;56.60
4548;DHT22;2286;51.570;7.090;2023-06-22T02:26:01;20.10;86.60
4548;DHT22;2286;51.570;7.090;2023-06-22T02:28:29;20.00;99.70
4548;DHT22;2286;51.570;7.090;2023-06-22T02:30:56;20.00;99.90
4548;DHT22;2286;51.570;7.090;2023-06-22T02:33:23;20.00;99.90
4548;DHT22;2286;51.570;7.090;2023-06-22T02:35:51;19.90;99.90
4548;DHT22;2286;51.570;7.090;2023-06-22T02:38:18;19.90;99.90
4548;DHT22;2286;51.570;7.090;2023-06-22T02:40:46;19.80;99.90
4548;DHT22;2286;51.570;7.090;2023-06-22T02:43:13;19.80;99.90
4548;DHT22;2286;51.570;7.090;2023-06-22T02:45:40;19.90;99.90
4548;DHT22;2286;51.570;7.090;2023-06-22T02:48:07;19.90;99.90
4548;DHT22;2286;51.570;7.090;2023-06-22T02:50:34;19.80;99.90
4548;DHT22;2286;51.570;7.090;2023-06-22T02:53:03;19.70;99.90
4548;DHT22;2286;51.570;7.090;2023-06-22T02:55:30;19.70;99.90
4548;DHT22;2286;51.570;7.090;2023-06-22T02:57:57;19.60;99.90
4548;DHT22;2286;51.570;7.090;2023-06-22T03:00:25;19.60;99.90
4548;DHT22;2286;51.570;7.090;2023-06-22T03:02:56;19.50;99.90
4548;DHT22;2286;51.570;7.090;2023-06-22T03:05:24;19.50;99.90
4548;DHT22;2286;51.570;7.090;2023-06-22T03:07:51;19.40;99.90
4548;DHT22;2286;51.570;7.090;2023-06-22T03:10:20;19.40;99.90
4548;DHT22;2286;51.570;7.090;2023-06-22T03:12:47;19.30;99.90
4548;DHT22;2286;51.570;7.090;2023-06-22T03:15:14;19.20;99.90
4548;DHT22;2286;51.570;7.090;2023-06-22T03:17:43;19.20;99.90
4548;DHT22;2286;51.570;7.090;2023-06-22T03:20:10;19.30;99.90
4548;DHT22;2286;51.570;7.090;2023-06-22T03:22:38;19.30;99.90
4548;DHT22;2286;51.570;7.090;2023-06-22T03:25:06;19.20;99.90
4548;DHT22;2286;51.570;7.090;2023-06-22T03:27:40;19.20;99.90
4548;DHT22;2286;51.570;7.090;2023-06-22T03:30:08;19.30;99.90
4548;DHT22;2286;51.570;7.090;2023-06-22T03:32:36;19.30;99.90
4548;DHT22;2286;51.570;7.090;2023-06-22T03:35:03;19.20;99.90
4548;DHT22;2286;51.570;7.090;2023-06-22T03:37:31;19.30;99.90
4548;DHT22;2286;51.570;7.090;2023-06-22T03:39:59;19.20;99.90
4548;DHT22;2286;51.570;7.090;2023-06-22T03:42:26;19.30;99.90
4548;DHT22;2286;51.570;7.090;2023-06-22T03:44:55;19.20;99.90
4548;DHT22;2286;51.570;7.090;2023-06-22T03:47:22;19.20;99.90
4548;DHT22;2286;51.570;7.090;2023-06-22T03:49:49;19.20;99.90
4548;DHT22;2286;51.570;7.090;2023-06-22T03:52:21;19.20;99.90
4548;DHT22;2286;51.570;7.090;2023-06-22T03:54:48;19.20;99.90
4548;DHT22;2286;51.570;7.090;2023-06-22T03:57:15;19.20;99.90
4548;DHT22;2286;51.570;7.090;2023-06-22T03:59:42;19.30;99.90
4548;DHT22;2286;51.570;7.090;2023-06-22T04:02:11;19.30;99.90
4548;DHT22;2286;51.570;7.090;2023-06-22T04:04:38;19.30;99.90
4548;DHT22;2286;51.570;7.090;2023-06-22T04:07:05;19.30;99.90
4548;DHT22;2286;51.570;7.090;2023-06-22T04:09:33;19.40;99.90
4548;DHT22;2286;51.570;7.090;2023-06-22T04:12:01;19.40;99.90
4548;DHT22;2286;51.570;7.090;2023-06-22T04:14:28;19.50;99.90
4548;DHT22;2286;51.570;7.090;2023-06-22T04:16:55;19.60;99.90
4548;DHT22;2286;51.570;7.090;2023-06-22T04:19:23;19.60;99.90
4548;DHT22;2286;51.570;7.090;2023-06-22T04:21:50;19.60;99.90
4548;DHT22;2286;51.570;7.090;2023-06-22T04:24:17;19.60;99.90
4548;DHT22;2286;51.570;7.090;2023-06-22T04:26:44;19.60;99.90
4548;DHT22;2286;51.570;7.090;2023-06-22T04:29:13;19.70;99.90
4548;DHT22;2286;51.570;7.090;2023-06-22T04:31:40;19.70;99.90
4548;DHT22;2286;51.570;7.090;2023-06-22T04:34:07;19.70;99.90
4548;DHT22;2286;51.570;7.090;2023-06-22T04:36:37;19.80;99.90
4548;DHT22;2286;51.570;7.090;2023-06-22T04:39:05;20.00;99.90
4548;DHT22;2286;51.570;7.090;2023-06-22T04:41:35;20.10;99.90
4548;DHT22;2286;51.570;7.090;2023-06-22T04:44:12;20.20;99.90
4548;DHT22;2286;51.570;7.090;2023-06-22T04:46:39;20.40;99.90
4548;DHT22;2286;51.570;7.090;2023-06-22T04:49:07;20.50;99.90
4548;DHT22;2286;51.570;7.090;2023-06-22T04:51:39;20.60;99.90
4548;DHT22;2286;51.570;7.090;2023-06-22T04:54:07;20.70;99.90
4548;DHT22;2286;51.570;7.090;2023-06-22T04:56:34;20.70;99.90
4548;DHT22;2286;51.570;7.090;2023-06-22T04:59:01;20.80;99.90
4548;DHT22;2286;51.570;7.090;2023-06-22T05:01:29;20.80;87.40
4548;DHT22;2286;51.570;7.090;2023-06-22T05:03:57;20.80;84.60
4548;DHT22;2286;51.570;7.090;2023-06-22T05:06:26;20.80;99.90
4548;DHT22;2286;51.570;7.090;2023-06-22T05:08:56;20.80;94.30
4548;DHT22;2286;51.570;7.090;2023-06-22T05:11:24;20.80;85.80
4548;DHT22;2286;51.570;7.090;2023-06-22T05:13:52;20.80;95.40
4548;DHT22;2286;51.570;7.090;2023-06-22T05:16:19;20.80;93.40
4548;DHT22;2286;51.570;7.090;2023-06-22T05:18:51;20.90;73.10
4548;DHT22;2286;51.570;7.090;2023-06-22T05:21:21;20.90;52.90
4548;DHT22;2286;51.570;7.090;2023-06-22T05:23:48;20.90;34.70
4548;DHT22;2286;51.570;7.090;2023-06-22T05:26:17;20.90;42.50
4548;DHT22;2286;51.570;7.090;2023-06-22T05:28:44;20.80;67.50
4548;DHT22;2286;51.570;7.090;2023-06-22T05:31:13;20.80;95.80
4548;DHT22;2286;51.570;7.090;2023-06-22T05:33:40;20.70;90.40
4548;DHT22;2286;51.570;7.090;2023-06-22T05:36:08;20.70;99.90
4548;DHT22;2286;51.570;7.090;2023-06-22T05:38:35;20.70;99.20
4548;DHT22;2286;51.570;7.090;2023-06-22T05:41:03;20.70;99.90
4548;DHT22;2286;51.570;7.090;2023-06-22T05:43:32;20.70;99.90
4548;DHT22;2286;51.570;7.090;2023-06-22T05:46:01;20.70;99.90
4548;DHT22;2286;51.570;7.090;2023-06-22T05:48:28;20.70;99.90
4548;DHT22;2286;51.570;7.090;2023-06-22T05:50:55;20.80;99.90
4548;DHT22;2286;51.570;7.090;2023-06-22T05:53:22;20.80;93.10
4548;DHT22;2286;51.570;7.090;2023-06-22T05:55:49;20.70;94.90
4548;DHT22;2286;51.570;7.090;2023-06-22T05:58:17;20.70;99.90
4548;DHT22;2286;51.570;7.090;2023-06-22T06:00:45;20.70;99.90
4548;DHT22;2286;51.570;7.090;2023-06-22T06:03:12;20.70;99.90
4548;DHT22;2286;51.570;7.090;2023-06-22T06:05:43;20.80;94.00
4548;DHT22;2286;51.570;7.090;2023-06-22T06:08:11;20.80;99.90
4548;DHT22;2286;51.570;7.090;2023-06-22T06:10:38;20.90;99.90
4548;DHT22;2286;51.570;7.090;2023-06-22T06:13:05;20.90;99.90
4548;DHT22;2286;51.570;7.090;2023-06-22T06:15:33;20.90;99.90
4548;DHT22;2286;51.570;7.090;2023-06-22T06:18:02;20.90;99.90
4548;DHT22;2286;51.570;7.090;2023-06-22T06:20:31;20.90;99.90
4548;DHT22;2286;51.570;7.090;2023-06-22T06:22:58;20.90;99.90
4548;DHT22;2286;51.570;7.090;2023-06-22T06:25:25;20.90;99.90
4548;DHT22;2286;51.570;7.090;2023-06-22T06:27:53;20.90;1.00
4548;DHT22;2286;51.570;7.090;2023-06-22T06:30:21;20.80;1.00
4548;DHT22;2286;51.570;7.090;2023-06-22T06:32:49;20.70;99.90
4548;DHT22;2286;51.570;7.090;2023-06-22T06:35:17;20.70;1.00
4548;DHT22;2286;51.570;7.090;2023-06-22T06:37:47;20.70;1.00
4548;DHT22;2286;51.570;7.090;2023-06-22T06:40:16;20.70;1.00
4548;DHT22;2286;51.570;7.090;2023-06-22T06:42:45;20.70;1.00
4548;DHT22;2286;51.570;7.090;2023-06-22T06:45:12;20.70;1.00
4548;DHT22;2286;51.570;7.090;2023-06-22T06:47:40;20.70;1.00
4548;DHT22;2286;51.570;7.090;2023-06-22T06:50:07;20.70;1.00
4548;DHT22;2286;51.570;7.090;2023-06-22T06:52:37;20.70;1.00
4548;DHT22;2286;51.570;7.090;2023-06-22T06:55:04;20.70;1.00
4548;DHT22;2286;51.570;7.090;2023-06-22T06:57:33;20.80;1.00
4548;DHT22;2286;51.570;7.090;2023-06-22T07:00:01;20.80;1.00
4548;DHT22;2286;51.570;7.090;2023-06-22T07:02:33;20.90;1.00
4548;DHT22;2286;51.570;7.090;2023-06-22T07:05:00;20.90;1.00
4548;DHT22;2286;51.570;7.090;2023-06-22T07:07:28;21.10;1.00
4548;DHT22;2286;51.570;7.090;2023-06-22T07:09:57;21.10;1.00
4548;DHT22;2286;51.570;7.090;2023-06-22T07:12:24;21.20;1.00
4548;DHT22;2286;51.570;7.090;2023-06-22T07:14:52;21.20;1.00
4548;DHT22;2286;51.570;7.090;2023-06-22T07:17:19;21.30;1.00
4548;DHT22;2286;51.570;7.090;2023-06-22T07:19:46;21.40;1.00
4548;DHT22;2286;51.570;7.090;2023-06-22T07:22:13;21.50;1.00
4548;DHT22;2286;51.570;7.090;2023-06-22T07:24:40;21.60;1.00
4548;DHT22;2286;51.570;7.090;2023-06-22T07:27:09;21.70;1.00
4548;DHT22;2286;51.570;7.090;2023-06-22T07:29:38;21.60;99.90
4548;DHT22;2286;51.570;7.090;2023-06-22T07:32:06;21.70;99.90
4548;DHT22;2286;51.570;7.090;2023-06-22T07:34:34;21.70;99.90
4548;DHT22;2286;51.570;7.090;2023-06-22T07:37:01;21.80;99.90
4548;DHT22;2286;51.570;7.090;2023-06-22T07:39:28;21.80;99.90
4548;DHT22;2286;51.570;7.090;2023-06-22T07:41:56;21.90;99.90
4548;DHT22;2286;51.570;7.090;2023-06-22T07:44:24;21.90;99.90
4548;DHT22;2286;51.570;7.090;2023-06-22T07:46:51;22.00;99.90
4548;DHT22;2286;51.570;7.090;2023-06-22T07:49:18;22.10;99.90
4548;DHT22;2286;51.570;7.090;2023-06-22T07:51:45;22.10;99.90
4548;DHT22;2286;51.570;7.090;2023-06-22T07:54:12;22.30;99.90
4548;DHT22;2286;51.570;7.090;2023-06-22T07:56:41;22.40;99.90
4548;DHT22;2286;51.570;7.090;2023-06-22T07:59:08;22.50;99.90
4548;DHT22;2286;51.570;7.090;2023-06-22T08:01:37;22.70;99.90
4548;DHT22;2286;51.570;7.090;2023-06-22T08:04:04;22.80;99.90
4548;DHT22;2286;51.570;7.090;2023-06-22T08:06:31;22.90;99.90
4548;DHT22;2286;51.570;7.090;2023-06-22T08:08:58;23.00;46.10
4548;DHT22;2286;51.570;7.090;2023-06-22T08:11:25;23.10;74.90
4548;DHT22;2286;51.570;7.090;2023-06-22T08:13:52;23.20;41.00
4548;DHT22;2286;51.570;7.090;2023-06-22T08:16:21;23.40;58.50
4548;DHT22;2286;51.570;7.090;2023-06-22T08:18:49;23.60;47.20
4548;DHT22;2286;51.570;7.090;2023-06-22T08:21:16;23.90;99.90
4548;DHT22;2286;51.570;7.090;2023-06-22T08:23:43;24.00;35.00
4548;DHT22;2286;51.570;7.090;2023-06-22T08:26:10;24.10;1.00
4548;DHT22;2286;51.570;7.090;2023-06-22T08:28:37;24.20;1.00
4548;DHT22;2286;51.570;7.090;2023-06-22T08:31:04;24.20;1.00
4548;DHT22;2286;51.570;7.090;2023-06-22T08:33:31;24.40;1.00
4548;DHT22;2286;51.570;7.090;2023-06-22T08:36:00;24.40;1.00
4548;DHT22;2286;51.570;7.090;2023-06-22T08:38:27;24.60;1.00
4548;DHT22;2286;51.570;7.090;2023-06-22T08:40:54;24.70;1.00
4548;DHT22;2286;51.570;7.090;2023-06-22T08:43:21;25.00;1.00
4548;DHT22;2286;51.570;7.090;2023-06-22T08:45:48;25.20;1.00
4548;DHT22;2286;51.570;7.090;2023-06-22T08:48:15;25.20;99.90
4548;DHT22;2286;51.570;7.090;2023-06-22T08:50:42;25.40;1.00
4548;DHT22;2286;51.570;7.090;2023-06-22T08:53:10;25.80;99.90
4548;DHT22;2286;51.570;7.090;2023-06-22T08:55:37;26.00;99.90
4548;DHT22;2286;51.570;7.090;2023-06-22T08:58:04;26.20;99.90
4548;DHT22;2286;51.570;7.090;2023-06-22T09:00:32;26.20;99.90
4548;DHT22;2286;51.570;7.090;2023-06-22T09:03:00;26.20;99.90
4548;DHT22;2286;51.570;7.090;2023-06-22T09:05:27;26.40;99.90
4548;DHT22;2286;51.570;7.090;2023-06-22T09:07:56;26.20;99.90
4548;DHT22;2286;51.570;7.090;2023-06-22T09:10:25;26.30;99.90
4548;DHT22;2286;51.570;7.090;2023-06-22T09:12:52;26.10;99.90
4548;DHT22;2286;51.570;7.090;2023-06-22T09:15:19;26.10;99.90
4548;DHT22;2286;51.570;7.090;2023-06-22T09:17:46;26.10;99.90
4548;DHT22;2286;51.570;7.090;2023-06-22T09:20:14;26.10;99.90
4548;DHT22;2286;51.570;7.090;2023-06-22T09:22:41;26.20;99.90
4548;DHT22;2286;51.570;7.090;2023-06-22T09:25:09;26.30;99.90
4548;DHT22;2286;51.570;7.090;2023-06-22T09:27:37;26.30;99.90
4548;DHT22;2286;51.570;7.090;2023-06-22T09:30:05;26.20;99.90
4548;DHT22;2286;51.570;7.090;2023-06-22T09:32:33;26.20;99.90
4548;DHT22;2286;51.570;7.090;2023-06-22T09:35:03;26.20;99.90
4548;DHT22;2286;51.570;7.090;2023-06-22T09:37:32;26.10;99.90
4548;DHT22;2286;51.570;7.090;2023-06-22T09:39:59;26.10;99.90
4548;DHT22;2286;51.570;7.090;2023-06-22T09:42:26;26.00;99.90
4548;DHT22;2286;51.570;7.090;2023-06-22T09:44:54;25.80;99.90
4548;DHT22;2286;51.570;7.090;2023-06-22T09:47:21;25.70;99.90
4548;DHT22;2286;51.570;7.090;2023-06-22T09:49:48;25.80;99.90
4548;DHT22;2286;51.570;7.090;2023-06-22T09:52:16;25.70;99.90
4548;DHT22;2286;51.570;7.090;2023-06-22T09:54:43;25.80;99.90
4548;DHT22;2286;51.570;7.090;2023-06-22T09:57:10;25.90;99.90
4548;DHT22;2286;51.570;7.090;2023-06-22T09:59:37;26.00;99.90
4548;DHT22;2286;51.570;7.090;2023-06-22T10:02:07;25.90;99.90
4548;DHT22;2286;51.570;7.090;2023-06-22T10:04:34;25.90;99.90
4548;DHT22;2286;51.570;7.090;2023-06-22T10:07:02;26.00;99.90
4548;DHT22;2286;51.570;7.090;2023-06-22T10:09:29;26.10;99.90
4548;DHT22;2286;51.570;7.090;2023-06-22T10:11:56;26.20;99.90
4548;DHT22;2286;51.570;7.090;2023-06-22T10:14:23;26.40;99.90
4548;DHT22;2286;51.570;7.090;2023-06-22T10:16:52;26.70;99.90
4548;DHT22;2286;51.570;7.090;2023-06-22T10:19:20;27.20;99.90
4548;DHT22;2286;51.570;7.090;2023-06-22T10:21:47;27.30;99.90
4548;DHT22;2286;51.570;7.090;2023-06-22T10:24:14;27.70;99.90
4548;DHT22;2286;51.570;7.090;2023-06-22T10:26:41;28.10;99.90
4548;DHT22;2286;51.570;7.090;2023-06-22T10:29:08;28.40;98.00
4548;DHT22;2286;51.570;7.090;2023-06-22T10:31:35;28.70;95.60
4548;DHT22;2286;51.570;7.090;2023-06-22T10:34:02;29.10;94.10
4548;DHT22;2286;51.570;7.090;2023-06-22T10:36:31;29.40;92.10
4548;DHT22;2286;51.570;7.090;2023-06-22T10:38:58;29.50;90.80
4548;DHT22;2286;51.570;7.090;2023-06-22T10:41:27;29.60;89.30
4548;DHT22;2286;51.570;7.090;2023-06-22T10:43:55;29.90;87.90
4548;DHT22;2286;51.570;7.090;2023-06-22T10:46:24;30.50;86.20
4548;DHT22;2286;51.570;7.090;2023-06-22T10:48:51;30.80;82.60
4548;DHT22;2286;51.570;7.090;2023-06-22T10:51:20;30.80;80.80
4548;DHT22;2286;51.570;7.090;2023-06-22T10:53:48;30.80;76.50
4548;DHT22;2286;51.570;7.090;2023-06-22T10:56:16;30.40;74.40
4548;DHT22;2286;51.570;7.090;2023-06-22T10:58:44;30.20;73.00
4548;DHT22;2286;51.570;7.090;2023-06-22T11:01:12;30.00;71.10
4548;DHT22;2286;51.570;7.090;2023-06-22T11:03:39;29.70;72.00
4548;DHT22;2286;51.570;7.090;2023-06-22T11:06:06;29.40;71.40
4548;DHT22;2286;51.570;7.090;2023-06-22T11:08:33;29.20;71.40
4548;DHT22;2286;51.570;7.090;2023-06-22T11:11:01;29.00;72.20
4548;DHT22;2286;51.570;7.090;2023-06-22T11:13:28;28.80;71.10
4548;DHT22;2286;51.570;7.090;2023-06-22T11:15:55;28.60;72.50
4548;DHT22;2286;51.570;7.090;2023-06-22T11:18:22;28.30;74.00
4548;DHT22;2286;51.570;7.090;2023-06-22T11:20:49;28.00;77.20
4548;DHT22;2286;51.570;7.090;2023-06-22T11:23:16;27.80;82.90
4548;DHT22;2286;51.570;7.090;2023-06-22T11:25:44;27.60;89.20
4548;DHT22;2286;51.570;7.090;2023-06-22T11:28:13;27.50;93.10
4548;DHT22;2286;51.570;7.090;2023-06-22T11:30:40;27.50;98.10
4548;DHT22;2286;51.570;7.090;2023-06-22T11:33:07;27.40;99.90
4548;DHT22;2286;51.570;7.090;2023-06-22T11:35:34;27.50;99.90
4548;DHT22;2286;51.570;7.090;2023-06-22T11:38:01;27.30;99.90
4548;DHT22;2286;51.570;7.090;2023-06-22T11:40:29;27.00;1.00
4548;DHT22;2286;51.570;7.090;2023-06-22T11:42:56;26.60;1.00
4548;DHT22;2286;51.570;7.090;2023-06-22T11:45:24;26.20;1.00
4548;DHT22;2286;51.570;7.090;2023-06-22T11:47:51;25.90;1.00
4548;DHT22;2286;51.570;7.090;2023-06-22T11:50:18;25.70;1.00
4548;DHT22;2286;51.570;7.090;2023-06-22T11:52:45;25.40;1.00
4548;DHT22;2286;51.570;7.090;2023-06-22T11:55:12;25.10;24.20
4548;DHT22;2286;51.570;7.090;2023-06-22T11:57:54;24.90;99.90
4548;DHT22;2286;51.570;7.090;2023-06-22T12:00:25;24.60;99.90
4548;DHT22;2286;51.570;7.090;2023-06-22T12:02:53;24.40;99.90
4548;DHT22;2286;51.570;7.090;2023-06-22T12:05:20;24.30;1.00
4548;DHT22;2286;51.570;7.090;2023-06-22T12:07:48;24.10;1.00
4548;DHT22;2286;51.570;7.090;2023-06-22T12:10:15;23.90;1.00
4548;DHT22;2286;51.570;7.090;2023-06-22T12:12:42;23.70;90.60
4548;DHT22;2286;51.570;7.090;2023-06-22T12:15:10;23.50;99.90
4548;DHT22;2286;51.570;7.090;2023-06-22T12:17:38;23.50;99.90
4548;DHT22;2286;51.570;7.090;2023-06-22T12:20:06;23.40;99.90
4548;DHT22;2286;51.570;7.090;2023-06-22T12:22:34;23.50;99.90
4548;DHT22;2286;51.570;7.090;2023-06-22T12:25:03;23.40;99.90
4548;DHT22;2286;51.570;7.090;2023-06-22T12:27:30;23.50;1.00
4548;DHT22;2286;51.570;7.090;2023-06-22T12:29:57;23.50;99.90
4548;DHT22;2286;51.570;7.090;2023-06-22T12:32:24;23.50;99.90
4548;DHT22;2286;51.570;7.090;2023-06-22T12:34:53;23.40;99.90
4548;DHT22;2286;51.570;7.090;2023-06-22T12:37:20;23.40;1.00
4548;DHT22;2286;51.570;7.090;2023-06-22T12:39:47;23.40;1.00
4548;DHT22;2286;51.570;7.090;2023-06-22T12:42:15;23.40;99.90
4548;DHT22;2286;51.570;7.090;2023-06-22T12:44:42;23.50;99.90
4548;DHT22;2286;51.570;7.090;2023-06-22T12:47:10;23.50;99.90
4548;DHT22;2286;51.570;7.090;2023-06-22T12:49:37;23.60;99.90
4548;DHT22;2286;51.570;7.090;2023-06-22T12:52:09;23.80;99.90
4548;DHT22;2286;51.570;7.090;2023-06-22T12:54:37;24.00;99.90
4548;DHT22;2286;51.570;7.090;2023-06-22T12:57:04;24.20;99.90
4548;DHT22;2286;51.570;7.090;2023-06-22T12:59:31;24.30;99.90
4548;DHT22;2286;51.570;7.090;2023-06-22T13:01:58;24.30;99.90
4548;DHT22;2286;51.570;7.090;2023-06-22T13:04:25;24.40;99.90
4548;DHT22;2286;51.570;7.090;2023-06-22T13:06:52;24.50;99.90
4548;DHT22;2286;51.570;7.090;2023-06-22T13:09:21;24.50;99.90
4548;DHT22;2286;51.570;7.090;2023-06-22T13:11:48;24.30;82.90
4548;DHT22;2286;51.570;7.090;2023-06-22T13:14:15;24.30;1.00
4548;DHT22;2286;51.570;7.090;2023-06-22T13:16:42;24.20;99.90
4548;DHT22;2286;51.570;7.090;2023-06-22T13:19:09;24.00;99.90
4548;DHT22;2286;51.570;7.090;2023-06-22T13:21:36;24.00;99.90
4548;DHT22;2286;51.570;7.090;2023-06-22T13:24:04;23.90;99.90
4548;DHT22;2286;51.570;7.090;2023-06-22T13:26:34;23.90;99.90
4548;DHT22;2286;51.570;7.090;2023-06-22T13:29:01;23.80;99.90
4548;DHT22;2286;51.570;7.090;2023-06-22T13:31:28;23.70;99.90
4548;DHT22;2286;51.570;7.090;2023-06-22T13:33:55;23.70;99.90
4548;DHT22;2286;51.570;7.090;2023-06-22T13:36:22;23.60;99.90
4548;DHT22;2286;51.570;7.090;2023-06-22T13:38:49;23.50;99.90
4548;DHT22;2286;51.570;7.090;2023-06-22T13:41:16;23.50;99.90
4548;DHT22;2286;51.570;7.090;2023-06-22T13:43:45;23.50;1.00
4548;DHT22;2286;51.570;7.090;2023-06-22T13:46:12;23.60;1.00
4548;DHT22;2286;51.570;7.090;2023-06-22T13:48:39;23.70;1.00
4548;DHT22;2286;51.570;7.090;2023-06-22T13:51:06;23.90;1.00
4548;DHT22;2286;51.570;7.090;2023-06-22T13:53:33;24.10;99.90
4548;DHT22;2286;51.570;7.090;2023-06-22T13:56:00;24.10;99.90
4548;DHT22;2286;51.570;7.090;2023-06-22T13:58:27;24.10;99.90
4548;DHT22;2286;51.570;7.090;2023-06-22T14:00:55;24.00;99.90
4548;DHT22;2286;51.570;7.090;2023-06-22T14:03:22;24.20;99.90
4548;DHT22;2286;51.570;7.090;2023-06-22T14:05:49;24.40;99.90
4548;DHT22;2286;51.570;7.090;2023-06-22T14:08:19;24.50;99.90
4548;DHT22;2286;51.570;7.090;2023-06-22T14:10:49;24.70;99.90
4548;DHT22;2286;51.570;7.090;2023-06-22T14:13:16;24.70;99.90
4548;DHT22;2286;51.570;7.090;2023-06-22T14:15:43;24.60;99.90
4548;DHT22;2286;51.570;7.090;2023-06-22T14:18:12;24.80;99.90
4548;DHT22;2286;51.570;7.090;2023-06-22T14:20:40;25.00;99.90
4548;DHT22;2286;51.570;7.090;2023-06-22T14:23:07;25.00;99.90
4548;DHT22;2286;51.570;7.090;2023-06-22T14:25:34;25.20;52.10
4548;DHT22;2286;51.570;7.090;2023-06-22T14:28:01;25.00;1.00
4548;DHT22;2286;51.570;7.090;2023-06-22T14:30:28;24.80;99.90
4548;DHT22;2286;51.570;7.090;2023-06-22T14:32:55;24.60;99.90
4548;DHT22;2286;51.570;7.090;2023-06-22T14:35:24;24.60;99.90
4548;DHT22;2286;51.570;7.090;2023-06-22T14:37:51;24.50;99.90
4548;DHT22;2286;51.570;7.090;2023-06-22T14:40:18;24.50;99.90
4548;DHT22;2286;51.570;7.090;2023-06-22T14:42:45;24.40;99.90
4548;DHT22;2286;51.570;7.090;2023-06-22T14:45:13;24.40;99.90
4548;DHT22;2286;51.570;7.090;2023-06-22T14:47:40;24.50;99.90
4548;DHT22;2286;51.570;7.090;2023-06-22T14:50:08;24.60;99.90
4548;DHT22;2286;51.570;7.090;2023-06-22T14:52:36;24.70;99.90
4548;DHT22;2286;51.570;7.090;2023-06-22T14:55:04;24.80;99.90
4548;DHT22;2286;51.570;7.090;2023-06-22T14:57:32;24.80;32.50
4548;DHT22;2286;51.570;7.090;2023-06-22T14:59:59;24.80;12.50
4548;DHT22;2286;51.570;7.090;2023-06-22T15:02:28;24.80;99.90
4548;DHT22;2286;51.570;7.090;2023-06-22T15:04:55;24.70;85.20
4548;DHT22;2286;51.570;7.090;2023-06-22T15:07:23;24.60;73.90
4548;DHT22;2286;51.570;7.090;2023-06-22T15:09:51;24.40;99.90
4548;DHT22;2286;51.570;7.090;2023-06-22T15:12:18;24.30;99.90
4548;DHT22;2286;51.570;7.090;2023-06-22T15:14:45;24.20;99.90
4548;DHT22;2286;51.570;7.090;2023-06-22T15:17:13;24.40;99.90
4548;DHT22;2286;51.570;7.090;2023-06-22T15:19:41;24.90;99.90
4548;DHT22;2286;51.570;7.090;2023-06-22T15:22:08;25.30;1.00
4548;DHT22;2286;51.570;7.090;2023-06-22T15:24:35;25.70;1.00
4548;DHT22;2286;51.570;7.090;2023-06-22T15:27:04;25.70;1.00
4548;DHT22;2286;51.570;7.090;2023-06-22T15:29:31;25.40;1.00
4548;DHT22;2286;51.570;7.090;2023-06-22T15:32:00;25.00;1.00
4548;DHT22;2286;51.570;7.090;2023-06-22T15:34:27;24.60;1.00
4548;DHT22;2286;51.570;7.090;2023-06-22T15:36:54;24.30;99.90
4548;DHT22;2286;51.570;7.090;2023-06-22T15:39:21;24.10;99.90
4548;DHT22;2286;51.570;7.090;2023-06-22T15:41:52;24.00;99.90
4548;DHT22;2286;51.570;7.090;2023-06-22T15:44:23;23.90;99.90
4548;DHT22;2286;51.570;7.090;2023-06-22T15:46:51;23.90;99.90
4548;DHT22;2286;51.570;7.090;2023-06-22T15:49:18;23.80;99.90
4548;DHT22;2286;51.570;7.090;2023-06-22T15:51:45;23.70;99.90
4548;DHT22;2286;51.570;7.090;2023-06-22T15:54:12;23.60;99.80
4548;DHT22;2286;51.570;7.090;2023-06-22T15:56:39;23.50;99.90
4548;DHT22;2286;51.570;7.090;2023-06-22T15:59:06;23.40;99.90
4548;DHT22;2286;51.570;7.090;2023-06-22T16:01:36;23.20;99.90
4548;DHT22;2286;51.570;7.090;2023-06-22T16:04:03;22.90;99.90
4548;DHT22;2286;51.570;7.090;2023-06-22T16:06:31;22.80;1.00
4548;DHT22;2286;51.570;7.090;2023-06-22T16:08:58;22.70;1.00